Time;durP1;ratioP1;P1;durP2;ratioP2;P2;SDS_P1;SDS_P2;PMS_P1;PMS_P2;Temp;Humidity;BMP_temperature;BMP_pressure;BME280_temperature;BME280_humidity;BME280_pressure;Samples;Min_cycle;Max_cycle;Signal;HPM_P1;HPM_P2
2021/12/20 00:02:00;;;;;;;5.57;2.30;;;9.10;99.90;;;;;;5051434;28;20037;-74
2021/12/20 00:04:26;;;;;;;7.10;2.65;;;9.10;99.90;;;;;;5051080;28;20132;-75
2021/12/20 00:06:53;;;;;;;6.32;2.50;;;9.10;99.90;;;;;;5051321;28;20025;-77
2021/12/20 00:09:19;;;;;;;8.27;2.30;;;9.10;99.90;;;;;;5051439;28;20049;-75
2021/12/20 00:11:45;;;;;;;7.63;2.25;;;9.10;99.90;;;;;;5050837;28;20087;-75
2021/12/20 00:14:11;;;;;;;7.47;2.30;;;9.20;99.90;;;;;;5033714;28;20063;-75
2021/12/20 00:16:37;;;;;;;2.93;1.73;;;9.20;99.90;;;;;;5051051;28;20462;-75
2021/12/20 00:19:04;;;;;;;9.95;2.67;;;9.20;99.90;;;;;;5051245;28;20329;-75
2021/12/20 00:21:30;;;;;;;4.15;2.28;;;9.20;99.90;;;;;;5071980;28;20115;-75
2021/12/20 00:24:02;;;;;;;5.63;2.40;;;9.20;99.90;;;;;;5093015;28;20111;-75
2021/12/20 00:26:28;;;;;;;8.05;2.10;;;9.30;99.90;;;;;;5091870;28;20376;-75
2021/12/20 00:28:54;;;;;;;6.85;2.40;;;9.30;99.90;;;;;;5092733;28;20121;-76
2021/12/20 00:31:20;;;;;;;7.95;2.22;;;9.30;99.90;;;;;;5092871;28;20012;-75
2021/12/20 00:33:46;;;;;;;7.40;2.30;;;9.30;99.90;;;;;;5092837;28;20103;-76
2021/12/20 00:36:20;;;;;;;7.07;2.20;;;9.30;99.90;;;;;;5092829;28;20333;-75
2021/12/20 00:41:33;;;;;;;6.23;2.00;;;9.30;99.90;;;;;;5093011;28;20168;-75
2021/12/20 00:43:59;;;;;;;4.68;2.00;;;9.20;99.90;;;;;;5075051;28;20063;-75
2021/12/20 00:46:26;;;;;;;5.32;2.20;;;9.10;99.90;;;;;;5092515;28;20028;-75
2021/12/20 00:48:52;;;;;;;6.85;2.20;;;9.10;99.90;;;;;;5092926;28;20392;-75
2021/12/20 00:51:18;;;;;;;6.43;2.17;;;9.00;99.90;;;;;;5092724;28;20445;-75
2021/12/20 00:53:45;;;;;;;5.18;2.20;;;8.90;99.90;;;;;;5092473;28;20046;-75
2021/12/20 00:56:11;;;;;;;4.38;1.90;;;8.80;99.90;;;;;;5092938;28;20024;-75
2021/12/20 00:58:37;;;;;;;;;;;8.90;99.90;;;;;;5092704;28;20060;-75
2021/12/20 01:01:05;;;;;;;6.77;2.23;;;8.80;99.90;;;;;;5092413;28;19944;-75
2021/12/20 01:03:31;;;;;;;4.55;2.55;;;8.80;99.90;;;;;;5092397;28;20032;-75
2021/12/20 01:05:59;;;;;;;8.77;2.60;;;8.70;99.90;;;;;;5092395;28;20059;-75
2021/12/20 01:08:28;;;;;;;4.85;2.38;;;8.70;99.90;;;;;;5092283;28;20097;-75
2021/12/20 01:10:56;;;;;;;6.78;2.28;;;8.80;99.90;;;;;;5092632;28;20035;-75
2021/12/20 01:13:28;;;;;;;6.10;2.60;;;8.80;99.90;;;;;;5091939;28;20500;-76
2021/12/20 01:15:57;;;;;;;4.50;2.30;;;8.80;99.90;;;;;;5074055;28;20062;-75
2021/12/20 01:18:23;;;;;;;9.68;2.55;;;8.80;99.90;;;;;;5058401;28;20020;-77
2021/12/20 01:20:52;;;;;;;6.20;2.35;;;8.70;99.90;;;;;;5092687;28;20103;-75
2021/12/20 01:23:19;;;;;;;4.18;1.85;;;8.80;99.90;;;;;;5092353;28;20043;-75
2021/12/20 01:25:48;;;;;;;3.47;2.22;;;8.80;99.90;;;;;;5092080;28;20134;-77
2021/12/20 01:28:15;;;;;;;6.93;2.20;;;8.80;99.90;;;;;;5092228;28;20028;-75
2021/12/20 01:30:42;;;;;;;5.93;2.30;;;8.80;99.90;;;;;;5091985;28;20012;-75
2021/12/20 01:33:11;;;;;;;6.35;2.20;;;8.80;99.90;;;;;;5074159;28;20028;-75
2021/12/20 01:35:37;;;;;;;4.22;1.83;;;8.70;99.90;;;;;;5092156;28;20032;-75
2021/12/20 01:38:03;;;;;;;5.35;2.10;;;8.70;99.90;;;;;;5092117;28;20043;-75
2021/12/20 01:40:30;;;;;;;4.40;2.17;;;8.60;99.90;;;;;;5095207;28;20032;-76
2021/12/20 01:42:57;;;;;;;7.53;2.28;;;8.60;99.90;;;;;;5096039;28;20047;-76
2021/12/20 01:45:25;;;;;;;4.85;2.30;;;8.50;99.90;;;;;;5096550;28;20334;-76
2021/12/20 01:48:03;;;;;;;7.57;2.33;;;8.50;99.90;;;;;;5095882;28;20098;-75
2021/12/20 01:50:46;;;;;;;6.18;2.20;;;8.40;99.90;;;;;;5096470;28;20502;-75
2021/12/20 01:53:15;;;;;;;5.80;2.38;;;8.40;99.90;;;;;;5095857;28;20185;-75
2021/12/20 01:55:43;;;;;;;8.18;2.05;;;8.40;99.90;;;;;;5096248;28;20055;-75
2021/12/20 01:58:09;;;;;;;7.43;2.72;;;8.40;99.90;;;;;;5077498;28;20109;-76
2021/12/20 02:01:03;;;;;;;4.28;2.05;;;8.50;99.90;;;;;;5096596;28;20062;-76
2021/12/20 02:03:32;;;;;;;4.22;2.10;;;8.50;99.90;;;;;;5077294;28;20189;-76
2021/12/20 02:06:01;;;;;;;4.90;2.35;;;8.50;99.90;;;;;;5095656;28;20031;-76
2021/12/20 02:08:30;;;;;;;3.67;2.20;;;8.60;99.90;;;;;;5077134;28;20031;-76
2021/12/20 02:11:09;;;;;;;4.68;2.60;;;8.50;99.90;;;;;;5077229;28;20028;-76
2021/12/20 02:13:37;;;;;;;4.60;2.08;;;8.50;99.90;;;;;;5095460;28;20040;-76
2021/12/20 02:16:04;;;;;;;7.10;1.88;;;8.60;99.90;;;;;;5095432;28;20027;-76
2021/12/20 02:18:32;;;;;;;5.22;1.98;;;8.60;99.90;;;;;;5095497;28;20028;-76
2021/12/20 02:20:59;;;;;;;4.30;2.00;;;8.60;99.90;;;;;;5095772;28;20024;-76
2021/12/20 02:23:26;;;;;;;4.57;1.98;;;8.60;99.90;;;;;;5095593;28;20089;-76
2021/12/20 02:25:53;;;;;;;7.03;2.35;;;8.60;99.90;;;;;;5095528;28;20020;-76
2021/12/20 02:28:22;;;;;;;5.95;2.08;;;8.70;99.90;;;;;;5095330;28;20032;-76
2021/12/20 02:38:52;;;;;;;4.35;2.20;;;8.50;99.90;;;;;;5095502;28;20495;-76
2021/12/20 02:41:27;;;;;;;4.95;2.22;;;8.40;99.90;;;;;;5094974;28;20384;-76
2021/12/20 02:44:03;;;;;;;5.55;2.63;;;8.50;99.90;;;;;;5094927;28;20132;-76
2021/12/20 02:49:04;;;;;;;6.40;2.10;;;8.60;99.90;;;;;;5095091;28;20046;-76
2021/12/20 02:51:31;;;;;;;4.18;1.75;;;8.60;99.90;;;;;;5094695;28;20027;-76
2021/12/20 02:54:00;;;;;;;8.50;1.88;;;8.70;99.90;;;;;;5095018;28;20103;-77
2021/12/20 02:56:26;;;;;;;5.70;1.77;;;8.80;99.90;;;;;;5076395;28;20016;-76
2021/12/20 02:58:53;;;;;;;4.68;1.73;;;9.00;99.90;;;;;;5093806;28;20112;-77
2021/12/20 03:01:20;;;;;;;6.32;2.47;;;9.00;99.90;;;;;;5077117;28;20032;-76
2021/12/20 03:03:49;;;;;;;9.90;2.10;;;9.00;99.90;;;;;;5094937;28;20119;-77
2021/12/20 03:06:20;;;;;;;5.90;2.05;;;9.00;99.90;;;;;;5094803;28;20364;-76
2021/12/20 03:08:50;;;;;;;2.88;1.67;;;8.90;99.90;;;;;;5094710;28;20106;-76
2021/12/20 03:11:17;;;;;;;6.40;2.25;;;9.00;99.90;;;;;;5094751;28;20024;-76
2021/12/20 03:13:45;;;;;;;;;;;8.90;99.90;;;;;;5094529;28;20109;-76
2021/12/20 03:16:12;;;;;;;4.50;1.67;;;9.00;99.90;;;;;;5094366;28;20461;-77
2021/12/20 03:18:38;;;;;;;6.60;2.15;;;9.10;99.90;;;;;;5094711;28;20016;-76
2021/12/20 03:21:04;;;;;;;3.22;1.98;;;9.00;99.90;;;;;;5094466;28;20396;-76
2021/12/20 03:23:30;;;;;;;6.07;2.15;;;8.90;99.90;;;;;;5094388;28;20044;-76
2021/12/20 03:25:56;;;;;;;5.03;2.10;;;8.90;99.90;;;;;;5094602;28;20487;-76
2021/12/20 03:28:22;;;;;;;6.43;2.10;;;8.80;99.90;;;;;;5094121;28;20335;-73
2021/12/20 03:30:49;;;;;;;5.63;2.42;;;8.80;99.90;;;;;;5094122;28;20055;-76
2021/12/20 03:33:15;;;;;;;5.68;2.35;;;8.70;99.90;;;;;;5093698;28;20028;-76
2021/12/20 03:35:41;;;;;;;6.40;2.20;;;8.60;99.90;;;;;;5093728;28;20034;-76
2021/12/20 03:38:08;;;;;;;7.78;2.30;;;8.60;99.90;;;;;;5093941;28;20273;-76
2021/12/20 03:40:37;;;;;;;;;;;8.60;99.90;;;;;;5094221;28;20461;-76
2021/12/20 03:43:05;;;;;;;4.97;2.25;;;8.60;99.90;;;;;;5093726;28;19912;-76
2021/12/20 03:45:33;;;;;;;5.43;2.22;;;8.60;99.90;;;;;;5093667;28;20024;-76
2021/12/20 03:48:01;;;;;;;4.20;2.25;;;8.50;99.90;;;;;;5093565;28;20089;-75
2021/12/20 03:50:28;;;;;;;6.95;2.10;;;8.50;99.90;;;;;;5075068;28;20062;-77
2021/12/20 03:52:55;;;;;;;8.20;2.30;;;8.50;99.90;;;;;;5093837;28;20393;-77
2021/12/20 03:55:21;;;;;;;5.43;1.98;;;8.50;99.90;;;;;;5074876;28;20028;-75
2021/12/20 03:57:47;;;;;;;3.67;1.90;;;8.50;99.90;;;;;;5093643;28;20102;-76
2021/12/20 04:00:16;;;;;;;5.10;2.30;;;8.40;99.90;;;;;;5093513;28;20047;-75
2021/12/20 04:02:47;;;;;;;7.60;2.30;;;8.30;99.90;;;;;;5075050;28;20036;-75
2021/12/20 04:05:14;;;;;;;6.32;2.25;;;8.20;99.90;;;;;;5075093;28;20021;-75
2021/12/20 04:07:44;;;;;;;3.50;1.75;;;8.10;99.90;;;;;;5093264;28;20060;-76
2021/12/20 04:10:11;;;;;;;5.07;2.15;;;8.00;99.90;;;;;;5093813;28;20101;-75
2021/12/20 04:12:37;;;;;;;5.05;2.22;;;8.00;99.90;;;;;;5075008;28;20035;-75
2021/12/20 04:15:05;;;;;;;6.07;2.33;;;8.00;99.90;;;;;;5093227;28;20142;-75
2021/12/20 04:17:32;;;;;;;7.00;1.50;;;8.00;99.90;;;;;;5075142;28;20036;-75
2021/12/20 04:19:59;;;;;;;2.60;1.15;;;8.00;99.90;;;;;;5093140;28;20392;-76
2021/12/20 04:22:26;;;;;;;5.97;2.05;;;8.10;99.90;;;;;;5075429;28;20032;-75
2021/12/20 04:24:54;;;;;;;7.38;2.03;;;8.10;99.90;;;;;;5093245;28;20090;-76
2021/12/20 04:27:20;;;;;;;4.25;1.95;;;8.20;99.90;;;;;;5093253;28;20024;-75
2021/12/20 04:29:47;;;;;;;4.70;2.00;;;8.20;99.90;;;;;;5092943;28;20035;-76
2021/12/20 04:32:14;;;;;;;4.28;1.55;;;8.30;99.90;;;;;;5092889;28;20073;-75
2021/12/20 04:34:40;;;;;;;;;;;8.30;99.90;;;;;;5093273;28;20333;-76
2021/12/20 04:37:08;;;;;;;3.55;1.80;;;8.30;99.90;;;;;;5075400;28;20364;-75
2021/12/20 04:39:34;;;;;;;5.63;1.90;;;8.20;99.90;;;;;;5092674;28;20028;-77
2021/12/20 04:42:03;;;;;;;3.95;1.83;;;8.20;99.90;;;;;;5092602;28;20031;-75
2021/12/20 04:44:29;;;;;;;6.47;2.40;;;8.20;99.90;;;;;;5057995;28;20472;-76
2021/12/20 04:46:55;;;;;;;7.97;1.80;;;8.40;99.90;;;;;;5092982;28;20020;-76
2021/12/20 04:49:24;;;;;;;;;;;8.50;99.90;;;;;;5093006;28;20465;-75
2021/12/20 04:51:54;;;;;;;6.85;2.03;;;8.60;99.90;;;;;;5074459;28;19912;-75
2021/12/20 04:54:21;;;;;;;5.20;1.77;;;8.60;99.90;;;;;;5093013;28;20103;-75
2021/12/20 04:56:47;;;;;;;;;;;8.50;99.90;;;;;;5092940;28;20388;-75
2021/12/20 04:59:13;;;;;;;5.57;1.80;;;8.50;99.90;;;;;;5092560;28;19923;-76
2021/12/20 05:01:40;;;;;;;9.27;2.00;;;8.60;99.90;;;;;;5092763;28;20188;-76
2021/12/20 05:04:06;;;;;;;2.57;1.60;;;8.60;99.90;;;;;;5092567;28;20028;-75
2021/12/20 05:06:33;;;;;;;10.43;1.80;;;8.50;99.90;;;;;;5092287;28;20429;-76
2021/12/20 05:09:01;;;;;;;5.78;2.10;;;8.50;99.90;;;;;;5092566;28;20028;-75
2021/12/20 05:11:30;;;;;;;5.28;1.67;;;8.50;99.90;;;;;;5092187;28;20036;-77
2021/12/20 05:13:56;;;;;;;2.53;1.60;;;8.60;99.90;;;;;;5073738;28;20110;-75
2021/12/20 05:16:23;;;;;;;4.93;1.70;;;8.70;99.90;;;;;;5092904;28;20040;-75
2021/12/20 05:18:49;;;;;;;4.57;1.90;;;8.70;99.90;;;;;;5092753;28;20031;-75
2021/12/20 05:21:15;;;;;;;4.40;1.83;;;8.70;99.90;;;;;;5092232;28;20051;-75
2021/12/20 05:23:41;;;;;;;6.22;1.70;;;8.60;99.90;;;;;;5092609;28;20472;-74
2021/12/20 05:26:07;;;;;;;8.10;1.73;;;8.70;99.90;;;;;;5092709;28;20469;-74
2021/12/20 05:28:34;;;;;;;5.30;1.60;;;8.70;99.90;;;;;;5092719;28;20035;-70
2021/12/20 05:31:01;;;;;;;4.28;1.77;;;8.70;99.90;;;;;;5092570;28;20024;-74
2021/12/20 05:33:29;;;;;;;;;;;8.60;99.90;;;;;;5092637;28;20028;-75
2021/12/20 05:35:56;;;;;;;7.40;2.47;;;8.60;99.90;;;;;;5092899;28;19904;-75
2021/12/20 05:38:22;;;;;;;4.38;1.40;;;8.70;99.90;;;;;;5073845;28;20028;-73
2021/12/20 05:40:48;;;;;;;6.97;1.90;;;8.80;99.90;;;;;;5092347;28;20020;-75
2021/12/20 05:43:14;;;;;;;3.63;1.60;;;8.80;99.90;;;;;;5073869;28;20048;-75
2021/12/20 05:45:40;;;;;;;3.60;1.95;;;8.80;99.90;;;;;;5073787;28;20024;-68
2021/12/20 05:48:06;;;;;;;3.92;1.73;;;8.70;99.90;;;;;;5091991;28;20438;-71
2021/12/20 05:50:32;;;;;;;5.38;2.33;;;8.70;99.90;;;;;;5091857;28;20429;-72
2021/12/20 05:52:58;;;;;;;4.82;2.03;;;8.60;99.90;;;;;;5092139;28;20028;-78
2021/12/20 05:55:25;;;;;;;5.07;1.98;;;8.50;99.90;;;;;;5091896;28;20048;-74
2021/12/20 05:57:51;;;;;;;5.38;2.00;;;8.50;99.90;;;;;;5074173;28;20028;-74
2021/12/20 06:00:20;;;;;;;5.30;2.20;;;8.50;99.90;;;;;;5092319;28;20445;-74
2021/12/20 06:02:49;;;;;;;5.57;1.90;;;8.50;99.90;;;;;;5091805;28;20036;-74
2021/12/20 06:05:17;;;;;;;5.18;2.00;;;8.50;99.90;;;;;;5073628;28;20020;-74
2021/12/20 06:07:43;;;;;;;6.85;1.83;;;8.50;99.90;;;;;;5073077;28;20046;-74
2021/12/20 06:10:16;;;;;;;8.20;2.10;;;8.50;99.90;;;;;;5091887;28;20447;-79
2021/12/20 06:12:43;;;;;;;6.35;2.20;;;8.50;99.90;;;;;;5073684;28;20023;-74
2021/12/20 06:15:11;;;;;;;8.68;1.80;;;8.50;99.90;;;;;;5073308;28;20373;-74
2021/12/20 06:17:38;;;;;;;4.88;2.05;;;8.50;99.90;;;;;;5091913;28;20032;-75
2021/12/20 06:20:05;;;;;;;;;;;8.50;99.90;;;;;;5092317;28;20112;-75
2021/12/20 06:22:31;;;;;;;3.65;1.70;;;8.50;99.90;;;;;;5091491;28;19930;-74
2021/12/20 06:24:57;;;;;;;6.03;1.90;;;8.50;99.90;;;;;;5092467;28;20074;-74
2021/12/20 06:27:23;;;;;;;4.65;1.80;;;8.60;99.90;;;;;;5095344;28;20372;-74
2021/12/20 06:29:49;;;;;;;7.60;2.08;;;8.70;99.90;;;;;;5095168;28;20024;-74
2021/12/20 06:32:17;;;;;;;6.23;2.10;;;8.70;99.90;;;;;;5095707;28;20078;-74
2021/12/20 06:34:44;;;;;;;5.00;1.75;;;8.90;99.90;;;;;;5095456;28;20031;-74
2021/12/20 06:37:12;;;;;;;;;;;9.30;99.90;;;;;;5095670;28;20031;-74
2021/12/20 06:39:43;;;;;;;8.38;2.03;;;9.80;99.90;;;;;;5076502;28;19912;-74
2021/12/20 06:42:09;;;;;;;6.32;2.10;;;10.30;99.90;;;;;;5092531;28;20139;-70
2021/12/20 06:44:35;;;;;;;5.53;1.83;;;10.90;99.90;;;;;;5083449;28;20104;-74
2021/12/20 06:47:02;;;;;;;8.88;2.15;;;11.50;99.80;;;;;;5066451;28;20028;-76
2021/12/20 06:49:28;;;;;;;5.60;1.83;;;12.00;98.60;;;;;;5087022;28;20075;-76
2021/12/20 06:51:59;;;;;;;7.78;2.25;;;12.30;97.40;;;;;;5093490;28;20019;-75
2021/12/20 06:54:26;;;;;;;5.50;1.98;;;12.60;97.00;;;;;;5075611;28;20024;-75
2021/12/20 06:56:52;;;;;;;10.02;2.30;;;12.90;96.80;;;;;;5093777;28;20388;-74
2021/12/20 06:59:18;;;;;;;5.93;2.20;;;13.60;95.90;;;;;;5093447;28;20027;-74
2021/12/20 07:01:44;;;;;;;5.65;2.00;;;13.40;96.30;;;;;;5093282;28;20285;-74
2021/12/20 07:04:12;;;;;;;7.10;1.80;;;13.80;96.50;;;;;;5093179;28;20055;-73
2021/12/20 07:06:38;;;;;;;6.55;1.85;;;13.90;96.30;;;;;;5093658;28;20024;-74
2021/12/20 07:09:07;;;;;;;7.38;2.10;;;14.10;95.00;;;;;;5093745;28;20035;-77
2021/12/20 07:11:33;;;;;;;12.35;2.30;;;14.90;94.40;;;;;;5094060;28;20033;-75
2021/12/20 07:14:00;;;;;;;6.43;1.80;;;15.40;93.80;;;;;;5093634;28;20116;-77
2021/12/20 07:16:26;;;;;;;11.27;2.30;;;15.90;92.10;;;;;;5093905;28;20364;-75
2021/12/20 07:18:52;;;;;;;5.63;1.80;;;16.60;91.60;;;;;;5093991;28;20376;-76
2021/12/20 07:21:19;;;;;;;8.23;2.15;;;16.50;90.60;;;;;;5093855;28;20032;-75
2021/12/20 07:23:45;;;;;;;6.03;2.05;;;16.70;90.80;;;;;;5093837;28;20028;-75
2021/12/20 07:26:13;;;;;;;6.15;2.00;;;16.80;90.30;;;;;;5075709;28;20028;-75
2021/12/20 07:28:41;;;;;;;6.13;2.00;;;16.80;89.80;;;;;;5093613;28;20054;-76
2021/12/20 07:31:09;;;;;;;7.63;2.25;;;16.40;91.30;;;;;;5093858;28;20043;-74
2021/12/20 07:33:35;;;;;;;4.50;1.90;;;16.20;91.20;;;;;;5093865;28;20051;-75
2021/12/20 07:36:01;;;;;;;6.78;1.90;;;16.30;90.90;;;;;;5093450;28;20112;-74
2021/12/20 07:38:27;;;;;;;6.40;2.42;;;16.40;91.00;;;;;;5092810;28;20032;-78
2021/12/20 07:40:57;;;;;;;6.85;2.20;;;16.50;91.10;;;;;;5075113;28;20115;-76
2021/12/20 07:43:26;;;;;;;8.13;2.05;;;16.80;91.30;;;;;;5093313;28;20137;-76
2021/12/20 07:45:52;;;;;;;6.25;2.05;;;16.50;90.90;;;;;;5093451;28;20020;-77
2021/12/20 07:48:22;;;;;;;8.50;2.10;;;16.20;91.50;;;;;;5093474;28;20605;-76
2021/12/20 07:50:49;;;;;;;7.50;2.25;;;16.00;91.90;;;;;;5074657;28;20027;-77
2021/12/20 07:53:15;;;;;;;;;;;15.40;92.30;;;;;;5093337;28;20024;-76
2021/12/20 07:55:42;;;;;;;5.00;2.20;;;15.20;93.20;;;;;;5074513;28;19919;-75
2021/12/20 07:58:08;;;;;;;5.60;2.10;;;14.80;93.30;;;;;;5075332;28;20032;-76
2021/12/20 08:00:35;;;;;;;6.75;2.20;;;14.70;93.60;;;;;;5075136;28;20023;-76
2021/12/20 08:03:01;;;;;;;10.05;2.38;;;14.60;93.60;;;;;;5093346;28;20174;-76
2021/12/20 08:05:28;;;;;;;11.77;2.03;;;14.60;93.80;;;;;;5093380;28;20461;-78
2021/12/20 08:07:58;;;;;;;13.23;2.00;;;14.60;93.90;;;;;;5093642;28;20097;-76
2021/12/20 08:10:29;;;;;;;9.38;2.13;;;14.50;94.30;;;;;;5074586;28;20020;-76
2021/12/20 08:12:56;;;;;;;4.47;1.90;;;14.40;94.30;;;;;;5093097;28;20038;-78
2021/12/20 08:15:22;;;;;;;12.15;2.00;;;14.40;94.50;;;;;;5093264;28;20032;-76
2021/12/20 08:17:52;;;;;;;11.07;1.80;;;14.40;94.70;;;;;;5074586;28;20035;-79
2021/12/20 08:20:19;;;;;;;9.15;2.05;;;14.20;95.00;;;;;;5092710;28;20031;-77
2021/12/20 08:22:51;;;;;;;34.67;5.15;;;14.10;95.30;;;;;;5092411;28;20025;-77
2021/12/20 08:25:18;;;;;;;10.13;1.80;;;14.10;95.20;;;;;;5092734;28;20098;-77
2021/12/20 08:27:44;;;;;;;;;;;14.00;95.50;;;;;;5093269;28;20024;-77
2021/12/20 08:30:12;;;;;;;115.32;15.43;;;14.10;96.00;;;;;;5092727;28;19915;-75
2021/12/20 08:32:38;;;;;;;380.40;38.90;;;14.40;95.40;;;;;;5092517;28;20031;-77
2021/12/20 08:35:26;;;;;;;177.80;17.17;;;14.60;95.20;;;;;;5092781;28;20029;-76
2021/12/20 08:37:58;;;;;;;105.65;11.73;;;14.60;95.00;;;;;;5092502;28;20077;-78
2021/12/20 08:40:25;;;;;;;20.48;4.95;;;14.90;95.20;;;;;;5073612;28;20043;-76
2021/12/20 08:42:51;;;;;;;;;;;15.10;94.80;;;;;;5074175;28;20046;-79
2021/12/20 08:45:18;;;;;;;57.50;9.02;;;15.10;95.00;;;;;;5091713;28;19908;-78
2021/12/20 08:47:45;;;;;;;29.67;5.25;;;15.10;95.00;;;;;;5091553;28;20059;-77
2021/12/20 08:50:26;;;;;;;27.02;3.28;;;15.00;95.10;;;;;;5092058;28;20051;-76
2021/12/20 08:52:53;;;;;;;29.08;4.20;;;15.20;95.30;;;;;;5091797;28;20016;-76
2021/12/20 08:55:20;;;;;;;25.38;3.15;;;15.30;94.80;;;;;;5092040;28;20035;-77
2021/12/20 08:57:47;;;;;;;10.57;2.38;;;15.30;95.00;;;;;;5092095;28;20020;-77
2021/12/20 09:00:18;;;;;;;12.10;2.70;;;15.40;94.80;;;;;;5073405;28;20089;-76
2021/12/20 09:02:47;;;;;;;15.45;3.67;;;15.50;94.90;;;;;;5092157;28;20123;-74
2021/12/20 09:05:14;;;;;;;7.60;2.10;;;15.60;94.80;;;;;;5072875;28;20024;-76
2021/12/20 09:08:03;;;;;;;17.10;3.17;;;15.60;94.30;;;;;;5073152;28;20429;-77
2021/12/20 09:10:32;;;;;;;6.22;1.92;;;15.70;96.30;;;;;;5072760;28;20497;-77
2021/12/20 09:13:23;;;;;;;5.85;2.80;;;15.70;94.70;;;;;;5088974;28;20032;-77
2021/12/20 09:15:49;;;;;;;4.60;1.73;;;15.80;94.40;;;;;;5051638;28;20035;-77
2021/12/20 09:18:16;;;;;;;488.27;46.38;;;15.50;95.80;;;;;;5051600;28;20378;-75
2021/12/20 09:20:43;;;;;;;41.50;4.88;;;15.60;94.70;;;;;;5051253;28;20036;-75
2021/12/20 09:23:11;;;;;;;87.30;9.73;;;15.50;94.90;;;;;;5051129;28;20044;-76
2021/12/20 09:25:46;;;;;;;28.80;4.15;;;15.40;95.60;;;;;;5051155;28;20079;-75
2021/12/20 09:28:15;;;;;;;12.95;2.88;;;15.30;95.70;;;;;;5051766;28;20036;-75
2021/12/20 09:30:44;;;;;;;9.07;1.83;;;15.50;95.50;;;;;;5051305;28;20041;-74
2021/12/20 09:33:11;;;;;;;34.75;4.90;;;15.50;94.80;;;;;;5051253;28;20506;-77
2021/12/20 09:35:38;;;;;;;35.95;4.38;;;15.60;95.80;;;;;;5051338;28;20078;-75
2021/12/20 09:38:10;;;;;;;44.45;5.35;;;15.80;95.20;;;;;;5049996;28;20029;-76
2021/12/20 09:41:12;;;;;;;14.23;2.38;;;15.80;94.90;;;;;;5051819;28;20032;-75
2021/12/20 09:43:31;;;;;;;25.50;3.15;;;15.30;95.40;;;;;;5050835;28;20496;-75
2021/12/20 09:45:58;;;;;;;13.07;2.33;;;15.50;95.30;;;;;;5049488;28;20082;-75
2021/12/20 09:48:24;;;;;;;10.93;2.10;;;15.60;95.50;;;;;;5051427;28;20120;-75
2021/12/20 09:50:51;;;;;;;6.78;1.90;;;15.60;95.20;;;;;;5049710;28;20086;-75
2021/12/20 09:53:17;;;;;;;3.95;1.60;;;15.50;95.30;;;;;;5051239;28;20029;-76
2021/12/20 09:55:47;;;;;;;6.05;1.83;;;15.80;95.80;;;;;;5051136;28;20490;-75
2021/12/20 09:58:19;;;;;;;5.30;1.33;;;15.70;95.00;;;;;;5051401;28;20416;-75
2021/12/20 10:00:56;;;;;;;8.70;1.67;;;15.60;94.60;;;;;;5050095;28;20033;-76
2021/12/20 10:03:26;;;;;;;4.82;1.80;;;15.50;94.80;;;;;;5054568;28;20045;-74
2021/12/20 10:05:57;;;;;;;4.97;1.83;;;15.20;95.20;;;;;;5054686;28;20021;-74
2021/12/20 10:08:32;;;;;;;3.55;1.60;;;15.30;95.50;;;;;;5051890;28;20052;-76
2021/12/20 10:11:03;;;;;;;68.65;8.45;;;15.40;95.30;;;;;;5054564;28;20037;-75
2021/12/20 10:13:34;;;;;;;17.23;2.90;;;15.10;95.30;;;;;;5056476;28;20028;-71
2021/12/20 10:16:02;;;;;;;18.92;3.47;;;15.10;96.30;;;;;;5074709;28;20104;-76
2021/12/20 10:18:33;;;;;;;19.58;2.38;;;15.30;98.80;;;;;;5074501;28;20029;-75
2021/12/20 10:21:01;;;;;;;14.10;2.30;;;15.50;97.30;;;;;;5074952;28;20100;-75
2021/12/20 10:23:31;;;;;;;10.13;1.80;;;15.40;96.90;;;;;;5074562;28;20450;-75
2021/12/20 10:26:04;;;;;;;7.78;1.90;;;15.50;95.40;;;;;;5082314;28;20063;-77
2021/12/20 10:28:34;;;;;;;6.55;1.80;;;15.60;95.30;;;;;;5095057;28;20540;-76
2021/12/20 10:31:11;;;;;;;4.60;1.90;;;15.80;96.90;;;;;;5091428;28;20127;-75
2021/12/20 10:33:39;;;;;;;8.93;2.28;;;15.80;95.10;;;;;;5076201;28;20128;-76
2021/12/20 10:36:13;;;;;;;10.05;2.35;;;15.90;95.40;;;;;;5076003;28;20020;-76
2021/12/20 10:38:43;;;;;;;56.40;6.32;;;16.00;95.50;;;;;;5076389;28;20036;-75
2021/12/20 10:41:32;;;;;;;12.10;2.60;;;16.10;95.90;;;;;;5094647;28;20073;-75
2021/12/20 10:44:01;;;;;;;6.50;2.00;;;16.00;94.10;;;;;;5094442;28;20492;-76
2021/12/20 10:46:30;;;;;;;6.88;2.20;;;15.50;94.80;;;;;;5094869;28;20499;-77
2021/12/20 10:49:05;;;;;;;6.53;2.00;;;15.60;96.10;;;;;;5094032;28;20384;-76
2021/12/20 10:51:39;;;;;;;5.45;1.80;;;15.70;95.60;;;;;;5094283;28;20085;-75
2021/12/20 10:54:13;;;;;;;3.25;1.50;;;16.00;95.70;;;;;;5094539;28;20016;-77
2021/12/20 10:56:51;;;;;;;7.07;2.00;;;15.90;95.10;;;;;;5094203;28;20031;-76
2021/12/20 10:59:21;;;;;;;4.15;1.40;;;15.90;95.00;;;;;;5094181;28;20107;-76
2021/12/20 11:04:40;;;;;;;19.38;3.30;;;15.90;94.90;;;;;;5074297;28;20047;-77
2021/12/20 11:09:42;;;;;;;10.82;2.05;;;16.10;95.10;;;;;;5093880;28;20024;-77
2021/12/20 11:12:13;;;;;;;4.88;1.75;;;16.20;94.50;;;;;;5093568;28;20057;-76
2021/12/20 11:14:44;;;;;;;4.68;1.63;;;15.90;94.90;;;;;;5093687;28;20032;-76
2021/12/20 11:17:15;;;;;;;5.38;2.45;;;15.90;94.70;;;;;;5093504;28;20032;-76
2021/12/20 11:19:54;;;;;;;5.90;2.17;;;16.20;94.70;;;;;;5093217;28;20020;-79
2021/12/20 11:22:28;;;;;;;5.25;2.22;;;16.20;94.80;;;;;;5093590;28;20376;-77
2021/12/20 11:25:07;;;;;;;32.10;5.13;;;16.30;94.50;;;;;;5093703;28;20056;-77
2021/12/20 11:27:42;;;;;;;9.32;2.90;;;16.30;94.50;;;;;;5093999;28;20035;-77
2021/12/20 11:30:12;;;;;;;8.80;2.38;;;16.00;95.20;;;;;;5067708;28;20092;-79
2021/12/20 11:32:40;;;;;;;81.35;11.23;;;16.10;95.20;;;;;;5075329;28;20020;-78
2021/12/20 11:35:07;;;;;;;32.28;4.47;;;16.10;95.60;;;;;;5075122;28;20035;-76
2021/12/20 11:37:40;;;;;;;8.10;2.35;;;16.30;94.90;;;;;;5093757;28;20043;-76
2021/12/20 11:40:09;;;;;;;8.38;2.00;;;16.50;95.20;;;;;;5093582;28;20021;-76
2021/12/20 11:42:35;;;;;;;3.40;1.63;;;16.60;94.70;;;;;;5074834;28;20550;-76
2021/12/20 11:45:05;;;;;;;6.05;2.05;;;16.80;94.30;;;;;;5093342;28;20020;-75
2021/12/20 11:47:50;;;;;;;5.07;1.90;;;17.00;94.20;;;;;;5093414;28;20039;-76
2021/12/20 11:50:23;;;;;;;3.95;2.10;;;17.00;94.40;;;;;;5093713;28;20044;-77
2021/12/20 11:52:52;;;;;;;5.50;2.17;;;17.00;94.50;;;;;;5093982;28;20150;-78
2021/12/20 11:55:31;;;;;;;6.50;2.83;;;16.90;94.30;;;;;;5074943;28;20027;-77
2021/12/20 11:58:17;;;;;;;10.30;2.55;;;17.00;95.10;;;;;;5074135;28;20466;-76
2021/12/20 12:00:49;;;;;;;4.13;1.80;;;16.90;95.30;;;;;;5091518;28;20043;-75
2021/12/20 12:03:21;;;;;;;7.57;2.72;;;17.10;94.60;;;;;;5090969;28;20464;-76
2021/12/20 12:05:52;;;;;;;6.13;2.65;;;17.00;94.50;;;;;;5091660;28;20016;-76
2021/12/20 12:08:52;;;;;;;5.97;2.40;;;17.00;94.90;;;;;;5091711;28;20052;-76
2021/12/20 12:11:19;;;;;;;5.78;2.55;;;17.00;94.80;;;;;;5092342;28;20024;-77
2021/12/20 12:14:18;;;;;;;6.72;2.72;;;16.90;94.90;;;;;;5091354;28;20043;-76
2021/12/20 12:17:00;;;;;;;6.18;2.40;;;17.10;95.10;;;;;;4971995;28;20042;-76
2021/12/20 12:19:52;;;;;;;6.60;2.40;;;16.50;94.60;;;;;;4990403;28;20026;-76
2021/12/20 12:22:35;;;;;;;4.00;2.20;;;16.10;95.80;;;;;;4989264;28;20058;-77
2021/12/20 12:25:11;;;;;;;4.45;2.05;;;16.20;96.00;;;;;;4991016;28;20459;-76
2021/12/20 12:27:44;;;;;;;;;;;16.20;95.90;;;;;;4974683;28;20102;-76
2021/12/20 12:30:13;;;;;;;5.45;2.45;;;16.20;95.90;;;;;;4974256;28;20401;-76
2021/12/20 12:32:48;;;;;;;7.63;2.53;;;16.30;96.40;;;;;;4990383;28;20161;-76
2021/12/20 12:35:47;;;;;;;6.25;2.60;;;16.40;96.10;;;;;;4990968;28;20035;-76
2021/12/20 12:38:16;;;;;;;5.00;3.17;;;16.60;95.50;;;;;;4987095;28;20046;-76
2021/12/20 12:42:11;;;;;;;6.45;3.40;;;16.70;95.30;;;;;;4990288;28;20352;-77
2021/12/20 12:44:32;;;;;;;12.98;6.60;;;16.80;95.40;;;;;;4946808;29;20066;-77
2021/12/20 12:47:07;;;;;;;9.20;3.13;;;16.80;96.40;;;;;;4951671;29;20039;-75
2021/12/20 12:49:51;;;;;;;4.75;2.60;;;16.80;96.40;;;;;;4948513;29;20036;-74
2021/12/20 12:52:17;;;;;;;4.82;2.55;;;16.80;95.60;;;;;;4945421;29;20031;-75
2021/12/20 12:54:44;;;;;;;4.70;2.60;;;16.70;95.70;;;;;;5015192;28;20124;-75
2021/12/20 12:57:10;;;;;;;4.43;2.42;;;16.70;95.80;;;;;;5027124;28;20068;-74
2021/12/20 12:59:58;;;;;;;4.67;2.37;;;16.90;95.50;;;;;;5028187;28;20049;-73
2021/12/20 13:02:28;;;;;;;5.30;2.20;;;17.00;95.30;;;;;;5024026;28;20342;-73
2021/12/20 13:05:05;;;;;;;7.30;1.95;;;17.00;95.70;;;;;;5029013;28;20029;-75
2021/12/20 13:07:33;;;;;;;;;;;17.00;95.30;;;;;;5029758;28;20410;-75
2021/12/20 13:10:05;;;;;;;5.10;2.00;;;17.00;95.50;;;;;;5012877;28;19905;-75
2021/12/20 13:17:39;;;;;;;12.77;3.88;;;16.90;95.60;;;;;;5029220;28;20026;-76
2021/12/20 13:20:34;;;;;;;5.50;2.00;;;16.90;95.70;;;;;;5051895;28;20566;-76
2021/12/20 13:23:05;;;;;;;5.72;2.30;;;16.90;95.50;;;;;;5071961;28;20040;-77
2021/12/20 13:25:35;;;;;;;5.50;2.15;;;16.60;96.20;;;;;;5071816;28;20314;-76
2021/12/20 13:28:02;;;;;;;4.43;1.65;;;16.60;96.30;;;;;;5071605;28;20037;-75
2021/12/20 13:30:33;;;;;;;;;;;16.70;96.10;;;;;;5070770;28;20484;-76